Terminal Aerodrome Forecast
Issued by NWS

Home | Current Version | Previous Version | Text Only | Print | Product List | Glossary On
Versions: 1 2 3 4 5 6 7 8 9 10 11 12 13 14 15 16 17 18 19 20 21 22 23 24 25 26 27 28 29 30 31
000
FTUS44 KLIX 242132 AAA
TAFHUM
TAF AMD
KHUM 242132Z 2422/2518 15014KT P6SM VCTS BKN025CB BKN040
     FM250000 15009KT P6SM VCSH SCT020 BKN080
     FM250300 13008KT P6SM BKN070
     FM251500 14012KT P6SM VCSH BKN025=

USA.gov is the U.S. government's official web portal to all federal, state and local government web resources and services.